sensor_id;sensor_type;location;lat;lon;timestamp;P1;durP1;ratioP1;P2;durP2;ratioP2
27979;SDS011;15315;50.836;4.430;2022-11-20T00:07:13;54.88;;;28.90;;
27979;SDS011;15315;50.836;4.430;2022-11-20T00:17:14;57.58;;;29.73;;
27979;SDS011;15315;50.836;4.430;2022-11-20T00:27:14;66.57;;;32.60;;
27979;SDS011;15315;50.836;4.430;2022-11-20T00:37:15;62.25;;;31.80;;
27979;SDS011;15315;50.836;4.430;2022-11-20T00:47:15;63.05;;;32.17;;
27979;SDS011;15315;50.836;4.430;2022-11-20T00:57:15;62.20;;;32.33;;
27979;SDS011;15315;50.836;4.430;2022-11-20T01:07:16;66.35;;;32.50;;
27979;SDS011;15315;50.836;4.430;2022-11-20T01:17:16;72.53;;;33.25;;
27979;SDS011;15315;50.836;4.430;2022-11-20T01:27:16;62.15;;;32.38;;
27979;SDS011;15315;50.836;4.430;2022-11-20T01:37:17;70.68;;;32.45;;
27979;SDS011;15315;50.836;4.430;2022-11-20T01:47:20;69.50;;;33.05;;
27979;SDS011;15315;50.836;4.430;2022-11-20T01:57:25;62.55;;;32.35;;
27979;SDS011;15315;50.836;4.430;2022-11-20T02:07:29;62.30;;;31.00;;
27979;SDS011;15315;50.836;4.430;2022-11-20T02:17:30;72.30;;;32.40;;
27979;SDS011;15315;50.836;4.430;2022-11-20T02:27:31;65.03;;;32.95;;
27979;SDS011;15315;50.836;4.430;2022-11-20T02:37:32;77.50;;;34.40;;
27979;SDS011;15315;50.836;4.430;2022-11-20T02:47:37;67.57;;;33.42;;
27979;SDS011;15315;50.836;4.430;2022-11-20T02:57:37;58.60;;;28.95;;
27979;SDS011;15315;50.836;4.430;2022-11-20T03:07:37;58.67;;;28.65;;
27979;SDS011;15315;50.836;4.430;2022-11-20T03:17:38;50.05;;;24.02;;
27979;SDS011;15315;50.836;4.430;2022-11-20T03:27:38;48.90;;;22.23;;
27979;SDS011;15315;50.836;4.430;2022-11-20T03:37:38;49.90;;;23.75;;
27979;SDS011;15315;50.836;4.430;2022-11-20T03:47:39;48.78;;;22.98;;
27979;SDS011;15315;50.836;4.430;2022-11-20T03:57:39;50.47;;;24.20;;
27979;SDS011;15315;50.836;4.430;2022-11-20T04:07:40;53.10;;;25.73;;
27979;SDS011;15315;50.836;4.430;2022-11-20T04:17:41;50.45;;;24.05;;
27979;SDS011;15315;50.836;4.430;2022-11-20T04:27:41;59.55;;;27.67;;
27979;SDS011;15315;50.836;4.430;2022-11-20T04:37:41;66.68;;;29.58;;
27979;SDS011;15315;50.836;4.430;2022-11-20T04:47:42;65.85;;;29.08;;
27979;SDS011;15315;50.836;4.430;2022-11-20T04:57:42;70.45;;;30.02;;
27979;SDS011;15315;50.836;4.430;2022-11-20T05:07:42;68.13;;;30.20;;
27979;SDS011;15315;50.836;4.430;2022-11-20T05:17:46;70.00;;;30.02;;
27979;SDS011;15315;50.836;4.430;2022-11-20T05:37:48;80.00;;;32.08;;
27979;SDS011;15315;50.836;4.430;2022-11-20T05:47:48;87.90;;;32.38;;
27979;SDS011;15315;50.836;4.430;2022-11-20T05:57:49;89.35;;;32.72;;
27979;SDS011;15315;50.836;4.430;2022-11-20T06:07:49;81.57;;;31.58;;
27979;SDS011;15315;50.836;4.430;2022-11-20T06:17:53;94.38;;;34.80;;
27979;SDS011;15315;50.836;4.430;2022-11-20T06:27:54;93.23;;;33.50;;
27979;SDS011;15315;50.836;4.430;2022-11-20T06:37:55;101.68;;;34.72;;
27979;SDS011;15315;50.836;4.430;2022-11-20T06:47:57;98.13;;;35.22;;
27979;SDS011;15315;50.836;4.430;2022-11-20T06:57:57;100.53;;;35.72;;
27979;SDS011;15315;50.836;4.430;2022-11-20T07:07:58;99.32;;;34.47;;
27979;SDS011;15315;50.836;4.430;2022-11-20T07:17:59;105.00;;;36.22;;
27979;SDS011;15315;50.836;4.430;2022-11-20T07:28:00;102.18;;;36.90;;
27979;SDS011;15315;50.836;4.430;2022-11-20T07:38:00;93.07;;;34.58;;
27979;SDS011;15315;50.836;4.430;2022-11-20T07:48:01;93.78;;;34.08;;
27979;SDS011;15315;50.836;4.430;2022-11-20T07:58:01;97.97;;;35.80;;
27979;SDS011;15315;50.836;4.430;2022-11-20T08:08:02;95.90;;;33.90;;
27979;SDS011;15315;50.836;4.430;2022-11-20T08:18:03;93.43;;;34.60;;
27979;SDS011;15315;50.836;4.430;2022-11-20T08:28:06;105.50;;;35.80;;
27979;SDS011;15315;50.836;4.430;2022-11-20T08:38:08;100.18;;;33.30;;
27979;SDS011;15315;50.836;4.430;2022-11-20T08:48:09;95.65;;;32.28;;
27979;SDS011;15315;50.836;4.430;2022-11-20T08:58:09;100.57;;;32.47;;
27979;SDS011;15315;50.836;4.430;2022-11-20T09:08:09;85.05;;;30.88;;
27979;SDS011;15315;50.836;4.430;2022-11-20T09:18:10;101.20;;;31.60;;
27979;SDS011;15315;50.836;4.430;2022-11-20T09:28:10;77.15;;;30.20;;
27979;SDS011;15315;50.836;4.430;2022-11-20T09:38:11;65.15;;;27.02;;
27979;SDS011;15315;50.836;4.430;2022-11-20T09:48:14;66.95;;;27.60;;
27979;SDS011;15315;50.836;4.430;2022-11-20T10:08:48;49.58;;;20.75;;
27979;SDS011;15315;50.836;4.430;2022-11-20T10:39:49;24.77;;;10.68;;
27979;SDS011;15315;50.836;4.430;2022-11-20T10:49:57;15.98;;;7.53;;
27979;SDS011;15315;50.836;4.430;2022-11-20T11:10:14;12.80;;;4.22;;
27979;SDS011;15315;50.836;4.430;2022-11-20T11:20:19;11.48;;;3.72;;
27979;SDS011;15315;50.836;4.430;2022-11-20T11:30:21;16.77;;;4.03;;
27979;SDS011;15315;50.836;4.430;2022-11-20T11:40:22;13.82;;;4.03;;
27979;SDS011;15315;50.836;4.430;2022-11-20T11:50:24;9.95;;;3.13;;
27979;SDS011;15315;50.836;4.430;2022-11-20T12:00:25;11.40;;;3.22;;
27979;SDS011;15315;50.836;4.430;2022-11-20T12:20:29;8.75;;;2.65;;
27979;SDS011;15315;50.836;4.430;2022-11-20T12:30:41;12.27;;;4.03;;
27979;SDS011;15315;50.836;4.430;2022-11-20T12:52:08;8.68;;;3.08;;
27979;SDS011;15315;50.836;4.430;2022-11-20T13:02:30;13.50;;;3.85;;
27979;SDS011;15315;50.836;4.430;2022-11-20T13:13:12;12.98;;;5.13;;
27979;SDS011;15315;50.836;4.430;2022-11-20T13:23:25;15.80;;;3.83;;
27979;SDS011;15315;50.836;4.430;2022-11-20T13:33:31;9.80;;;3.42;;
27979;SDS011;15315;50.836;4.430;2022-11-20T13:43:35;9.13;;;3.25;;
27979;SDS011;15315;50.836;4.430;2022-11-20T13:54:00;12.57;;;3.65;;
27979;SDS011;15315;50.836;4.430;2022-11-20T14:04:08;9.65;;;2.92;;
27979;SDS011;15315;50.836;4.430;2022-11-20T14:14:19;5.85;;;2.40;;
27979;SDS011;15315;50.836;4.430;2022-11-20T14:24:22;4.20;;;2.35;;
27979;SDS011;15315;50.836;4.430;2022-11-20T14:34:27;3.85;;;2.42;;
27979;SDS011;15315;50.836;4.430;2022-11-20T14:44:33;4.75;;;2.60;;
27979;SDS011;15315;50.836;4.430;2022-11-20T14:54:35;5.50;;;2.90;;
27979;SDS011;15315;50.836;4.430;2022-11-20T15:04:47;8.65;;;4.20;;
27979;SDS011;15315;50.836;4.430;2022-11-20T15:24:49;9.20;;;5.22;;
27979;SDS011;15315;50.836;4.430;2022-11-20T15:34:49;10.32;;;4.65;;
27979;SDS011;15315;50.836;4.430;2022-11-20T15:44:50;11.55;;;4.20;;
27979;SDS011;15315;50.836;4.430;2022-11-20T15:54:50;10.60;;;3.80;;
27979;SDS011;15315;50.836;4.430;2022-11-20T16:04:50;10.90;;;3.97;;
27979;SDS011;15315;50.836;4.430;2022-11-20T16:14:51;18.00;;;4.20;;
27979;SDS011;15315;50.836;4.430;2022-11-20T16:25:10;18.70;;;5.75;;
27979;SDS011;15315;50.836;4.430;2022-11-20T16:35:10;29.15;;;4.93;;
27979;SDS011;15315;50.836;4.430;2022-11-20T16:45:11;24.70;;;4.25;;
27979;SDS011;15315;50.836;4.430;2022-11-20T16:55:11;31.40;;;4.75;;
27979;SDS011;15315;50.836;4.430;2022-11-20T17:05:12;30.02;;;4.53;;
27979;SDS011;15315;50.836;4.430;2022-11-20T17:15:12;32.25;;;9.48;;
27979;SDS011;15315;50.836;4.430;2022-11-20T17:25:12;31.90;;;4.82;;
27979;SDS011;15315;50.836;4.430;2022-11-20T17:35:13;38.80;;;5.65;;
27979;SDS011;15315;50.836;4.430;2022-11-20T17:45:13;29.90;;;5.78;;
27979;SDS011;15315;50.836;4.430;2022-11-20T17:55:14;31.83;;;7.70;;
27979;SDS011;15315;50.836;4.430;2022-11-20T18:05:14;16.98;;;3.92;;
27979;SDS011;15315;50.836;4.430;2022-11-20T18:15:15;15.60;;;3.75;;
27979;SDS011;15315;50.836;4.430;2022-11-20T18:25:16;26.88;;;7.57;;
27979;SDS011;15315;50.836;4.430;2022-11-20T18:35:16;37.25;;;8.68;;
27979;SDS011;15315;50.836;4.430;2022-11-20T18:45:16;49.22;;;11.77;;
27979;SDS011;15315;50.836;4.430;2022-11-20T18:55:17;42.13;;;11.55;;
27979;SDS011;15315;50.836;4.430;2022-11-20T19:05:17;37.58;;;8.45;;
27979;SDS011;15315;50.836;4.430;2022-11-20T19:15:19;40.53;;;9.82;;
27979;SDS011;15315;50.836;4.430;2022-11-20T19:25:19;39.33;;;8.80;;
27979;SDS011;15315;50.836;4.430;2022-11-20T19:35:20;46.20;;;8.35;;
27979;SDS011;15315;50.836;4.430;2022-11-20T19:45:20;40.45;;;8.85;;
27979;SDS011;15315;50.836;4.430;2022-11-20T19:55:20;40.65;;;8.95;;
27979;SDS011;15315;50.836;4.430;2022-11-20T20:05:21;43.80;;;9.27;;
27979;SDS011;15315;50.836;4.430;2022-11-20T20:15:21;43.55;;;8.88;;
27979;SDS011;15315;50.836;4.430;2022-11-20T20:25:22;45.60;;;9.13;;
27979;SDS011;15315;50.836;4.430;2022-11-20T20:35:22;42.05;;;7.10;;
27979;SDS011;15315;50.836;4.430;2022-11-20T20:45:23;44.88;;;8.40;;
27979;SDS011;15315;50.836;4.430;2022-11-20T20:55:23;41.42;;;8.02;;
27979;SDS011;15315;50.836;4.430;2022-11-20T21:05:24;39.58;;;9.98;;
27979;SDS011;15315;50.836;4.430;2022-11-20T21:15:25;42.58;;;8.93;;
27979;SDS011;15315;50.836;4.430;2022-11-20T21:25:25;38.58;;;7.63;;
27979;SDS011;15315;50.836;4.430;2022-11-20T21:35:25;44.33;;;6.82;;
27979;SDS011;15315;50.836;4.430;2022-11-20T21:45:26;38.33;;;7.38;;
27979;SDS011;15315;50.836;4.430;2022-11-20T21:55:27;36.08;;;6.40;;
27979;SDS011;15315;50.836;4.430;2022-11-20T22:05:27;39.33;;;6.68;;
27979;SDS011;15315;50.836;4.430;2022-11-20T22:15:27;37.88;;;6.20;;
27979;SDS011;15315;50.836;4.430;2022-11-20T22:25:29;33.38;;;5.90;;
27979;SDS011;15315;50.836;4.430;2022-11-20T22:35:31;28.55;;;5.85;;
27979;SDS011;15315;50.836;4.430;2022-11-20T22:45:31;21.70;;;5.13;;
27979;SDS011;15315;50.836;4.430;2022-11-20T22:55:32;21.50;;;5.40;;
27979;SDS011;15315;50.836;4.430;2022-11-20T23:05:33;25.00;;;5.00;;
27979;SDS011;15315;50.836;4.430;2022-11-20T23:15:33;23.13;;;3.75;;
27979;SDS011;15315;50.836;4.430;2022-11-20T23:25:34;14.95;;;3.42;;
27979;SDS011;15315;50.836;4.430;2022-11-20T23:35:37;16.00;;;3.42;;
27979;SDS011;15315;50.836;4.430;2022-11-20T23:45:38;18.57;;;4.47;;
27979;SDS011;15315;50.836;4.430;2022-11-20T23:55:42;17.65;;;4.95;;
